createdAt,value
2018-06-02T00:00:49.574Z,0.00
2018-06-02T00:01:49.501Z,0.00
2018-06-02T00:02:49.432Z,0.00
2018-06-02T00:03:49.362Z,0.00
2018-06-02T00:04:49.284Z,0.00
2018-06-02T00:05:49.209Z,0.00
2018-06-02T00:06:49.137Z,0.00
2018-06-02T00:07:49.060Z,0.00
2018-06-02T00:08:48.988Z,0.00
2018-06-02T00:09:48.923Z,0.00
2018-06-02T00:10:48.843Z,0.00
2018-06-02T00:11:48.769Z,0.00
2018-06-02T00:12:48.701Z,0.00
2018-06-02T00:13:48.625Z,0.00
2018-06-02T00:14:48.553Z,0.00
2018-06-02T00:15:48.494Z,0.00
2018-06-02T00:16:48.407Z,0.00
2018-06-02T00:17:48.331Z,0.00
2018-06-02T00:18:48.259Z,0.00
2018-06-02T00:19:48.184Z,0.00
2018-06-02T00:20:48.114Z,0.00
2018-06-02T00:21:48.046Z,0.00
2018-06-02T00:22:47.970Z,0.00
2018-06-02T00:23:47.903Z,0.00
2018-06-02T00:24:47.824Z,0.00
2018-06-02T00:25:47.751Z,0.00
2018-06-02T00:26:47.678Z,0.00
2018-06-02T00:27:47.609Z,0.00
2018-06-02T00:28:47.528Z,0.00
2018-06-02T00:29:47.457Z,0.00
2018-06-02T00:30:47.384Z,0.00
2018-06-02T00:31:47.311Z,0.00
2018-06-02T00:32:47.237Z,0.00
2018-06-02T00:33:47.175Z,0.00
2018-06-02T00:34:47.094Z,0.00
2018-06-02T00:35:47.018Z,0.00
2018-06-02T00:36:46.950Z,0.00
2018-06-02T00:37:46.877Z,0.00
2018-06-02T00:38:46.800Z,0.00
2018-06-02T00:39:46.732Z,0.00
2018-06-02T00:40:46.654Z,0.00
2018-06-02T00:41:46.581Z,0.00
2018-06-02T00:42:46.508Z,0.00
2018-06-02T00:43:46.436Z,0.00
2018-06-02T00:44:46.361Z,0.00
2018-06-02T00:45:46.301Z,0.00
2018-06-02T00:46:46.219Z,0.00
2018-06-02T00:47:46.152Z,0.00
2018-06-02T00:48:46.075Z,0.00
2018-06-02T00:49:45.996Z,0.00
2018-06-02T00:50:45.925Z,0.00
2018-06-02T00:51:45.857Z,0.00
2018-06-02T00:52:45.778Z,0.00
2018-06-02T00:53:45.708Z,0.00
2018-06-02T00:54:45.632Z,0.00
2018-06-02T00:55:45.561Z,0.00
2018-06-02T00:56:45.489Z,0.00
2018-06-02T00:57:45.415Z,0.00
2018-06-02T00:58:45.342Z,0.00
2018-06-02T00:59:45.269Z,0.00
2018-06-02T01:00:45.194Z,0.00
2018-06-02T01:01:45.132Z,0.00
2018-06-02T01:02:45.049Z,0.00
2018-06-02T01:03:44.975Z,0.00
2018-06-02T01:04:44.903Z,0.00
2018-06-02T01:05:44.831Z,0.00
2018-06-02T01:06:44.758Z,0.00
2018-06-02T01:07:44.681Z,0.00
2018-06-02T01:08:44.610Z,0.00
2018-06-02T01:09:44.536Z,0.00
2018-06-02T01:10:44.468Z,0.00
2018-06-02T01:11:44.411Z,0.00
2018-06-02T01:12:44.339Z,0.00
2018-06-02T01:13:44.254Z,0.00
2018-06-02T01:14:44.173Z,0.00
2018-06-02T01:15:44.100Z,0.00
2018-06-02T01:16:44.028Z,0.00
2018-06-02T01:17:43.953Z,0.00
2018-06-02T01:18:43.883Z,0.00
2018-06-02T01:19:43.817Z,0.00
2018-06-02T01:20:43.745Z,0.00
2018-06-02T01:21:43.662Z,0.00
2018-06-02T01:22:43.597Z,0.00
2018-06-02T01:23:43.515Z,0.00
2018-06-02T01:24:43.445Z,0.00
2018-06-02T01:25:43.378Z,0.00
2018-06-02T01:26:43.327Z,0.00
2018-06-02T01:27:43.229Z,0.00
2018-06-02T01:28:43.150Z,0.00
2018-06-02T01:29:43.079Z,0.00
2018-06-02T01:30:43.005Z,0.00
2018-06-02T01:31:42.936Z,0.00
2018-06-02T01:32:42.860Z,0.00
2018-06-02T01:33:42.787Z,0.00
2018-06-02T01:34:42.714Z,0.00
2018-06-02T01:35:42.641Z,0.00
2018-06-02T01:36:42.567Z,0.00
2018-06-02T01:37:42.504Z,0.00
2018-06-02T01:38:42.426Z,0.00
2018-06-02T01:39:42.352Z,0.00
2018-06-02T01:40:42.277Z,0.00
2018-06-02T01:41:42.203Z,0.00
2018-06-02T01:42:42.131Z,0.00
2018-06-02T01:43:42.058Z,0.00
2018-06-02T01:44:41.992Z,0.00
2018-06-02T01:45:41.911Z,0.00
2018-06-02T01:46:41.840Z,0.00
2018-06-02T01:47:41.783Z,0.00
2018-06-02T01:48:41.693Z,0.00
2018-06-02T01:49:41.623Z,0.00
2018-06-02T01:50:41.544Z,0.00
2018-06-02T01:51:41.471Z,0.00
2018-06-02T01:52:41.402Z,0.00
2018-06-02T01:53:41.330Z,0.00
2018-06-02T01:54:41.318Z,0.00
2018-06-02T01:55:41.183Z,0.00
2018-06-02T01:56:41.115Z,0.00
2018-06-02T01:57:41.036Z,0.00
2018-06-02T01:58:40.961Z,0.00
2018-06-02T01:59:40.888Z,0.00
2018-06-02T02:00:40.816Z,0.00
2018-06-02T02:01:40.742Z,0.00
2018-06-02T02:02:40.675Z,0.00
2018-06-02T02:03:40.595Z,0.00
2018-06-02T02:04:40.524Z,0.00
2018-06-02T02:05:40.453Z,0.00
2018-06-02T02:06:40.379Z,0.00
2018-06-02T02:07:40.304Z,0.00
2018-06-02T02:08:40.236Z,0.00
2018-06-02T02:09:40.160Z,0.00
2018-06-02T02:10:40.084Z,0.00
2018-06-02T02:11:40.013Z,0.00
2018-06-02T02:12:39.938Z,0.00
2018-06-02T02:13:39.869Z,0.00
2018-06-02T02:14:39.797Z,0.00
2018-06-02T02:15:39.727Z,0.00
2018-06-02T02:16:39.661Z,0.00
2018-06-02T02:17:39.597Z,0.00
2018-06-02T02:18:39.499Z,0.00
2018-06-02T02:19:39.429Z,0.00
2018-06-02T02:20:39.353Z,0.00
2018-06-02T02:21:39.291Z,0.00
2018-06-02T02:22:39.212Z,0.00
2018-06-02T02:23:39.149Z,0.00
2018-06-02T02:24:39.063Z,0.00
2018-06-02T02:25:38.990Z,0.00
2018-06-02T02:26:38.917Z,0.00
2018-06-02T02:27:38.847Z,0.00
2018-06-02T02:28:38.769Z,0.00
2018-06-02T02:29:38.699Z,0.00
2018-06-02T02:30:38.623Z,0.00
2018-06-02T02:31:38.554Z,0.00
2018-06-02T02:32:38.478Z,0.00
2018-06-02T02:33:38.414Z,0.00
2018-06-02T02:34:38.331Z,0.00
2018-06-02T02:35:38.263Z,0.00
2018-06-02T02:36:38.189Z,0.00
2018-06-02T02:37:38.115Z,0.00
2018-06-02T02:38:38.045Z,0.00
2018-06-02T02:39:37.972Z,0.00
2018-06-02T02:40:37.894Z,0.00
2018-06-02T02:41:37.821Z,0.00
2018-06-02T02:42:37.748Z,0.00
2018-06-02T02:43:37.672Z,0.00
2018-06-02T02:44:37.606Z,0.00
2018-06-02T02:45:37.537Z,0.00
2018-06-02T02:46:37.464Z,0.00
2018-06-02T02:47:37.382Z,0.00
2018-06-02T02:48:37.309Z,0.00
2018-06-02T02:49:37.236Z,0.00
2018-06-02T02:50:37.166Z,0.00
2018-06-02T02:51:37.100Z,0.00
2018-06-02T02:52:37.018Z,0.00
2018-06-02T02:53:36.945Z,0.00
2018-06-02T02:54:36.870Z,0.00
2018-06-02T02:55:36.799Z,0.00
2018-06-02T02:56:36.731Z,0.00
2018-06-02T02:57:36.657Z,0.00
2018-06-02T02:58:36.580Z,0.00
2018-06-02T02:59:36.508Z,0.00
2018-06-02T03:00:36.436Z,0.00
2018-06-02T03:01:36.361Z,0.00
2018-06-02T03:02:36.288Z,0.00
2018-06-02T03:03:36.221Z,0.00
2018-06-02T03:04:36.146Z,0.00
2018-06-02T03:05:36.068Z,0.00
2018-06-02T03:06:35.996Z,0.00
2018-06-02T03:07:35.921Z,0.00
2018-06-02T03:08:35.850Z,0.00
2018-06-02T03:09:35.785Z,0.00
2018-06-02T03:10:35.706Z,0.00
2018-06-02T03:11:35.637Z,0.00
2018-06-02T03:12:35.556Z,0.00
2018-06-02T03:13:35.485Z,0.00
2018-06-02T03:14:35.413Z,0.00
2018-06-02T03:15:35.359Z,0.00
2018-06-02T03:16:35.267Z,5.63
2018-06-02T03:17:35.194Z,5.63
2018-06-02T03:18:35.124Z,5.63
2018-06-02T03:19:35.054Z,5.63
2018-06-02T03:20:34.978Z,5.63
2018-06-02T03:21:34.908Z,5.63
2018-06-02T03:22:34.829Z,5.63
2018-06-02T03:23:34.755Z,5.63
2018-06-02T03:24:34.710Z,11.25
2018-06-02T03:25:34.618Z,11.25
2018-06-02T03:26:34.538Z,11.25
2018-06-02T03:27:34.462Z,11.25
2018-06-02T03:28:34.408Z,11.25
2018-06-02T03:29:34.321Z,11.25
2018-06-02T03:30:34.248Z,11.25
2018-06-02T03:31:34.177Z,16.88
2018-06-02T03:32:34.101Z,16.88
2018-06-02T03:33:34.028Z,16.88
2018-06-02T03:34:33.964Z,16.88
2018-06-02T03:35:33.884Z,16.88
2018-06-02T03:36:33.811Z,16.88
2018-06-02T03:37:33.735Z,22.50
2018-06-02T03:38:33.664Z,22.50
2018-06-02T03:39:33.597Z,22.50
2018-06-02T03:40:33.518Z,22.50
2018-06-02T03:41:33.446Z,22.50
2018-06-02T03:42:33.373Z,22.50
2018-06-02T03:43:33.299Z,22.50
2018-06-02T03:44:33.227Z,22.50
2018-06-02T03:45:33.156Z,22.50
2018-06-02T03:46:33.081Z,28.13
2018-06-02T03:47:33.007Z,28.13
2018-06-02T03:48:32.935Z,28.13
2018-06-02T03:49:32.863Z,28.13
2018-06-02T03:50:32.794Z,28.13
2018-06-02T03:51:32.726Z,28.13
2018-06-02T03:52:32.641Z,33.75
2018-06-02T03:53:32.569Z,33.75
2018-06-02T03:54:32.499Z,33.75
2018-06-02T03:55:32.432Z,39.38
2018-06-02T03:56:32.355Z,39.38
2018-06-02T03:57:32.286Z,39.38
2018-06-02T03:58:32.205Z,39.38
2018-06-02T03:59:32.137Z,45.00
2018-06-02T04:00:32.061Z,45.00
2018-06-02T04:01:31.991Z,45.00
2018-06-02T04:02:31.922Z,45.00
2018-06-02T04:03:31.844Z,50.63
2018-06-02T04:04:31.769Z,50.63
2018-06-02T04:05:31.696Z,50.63
2018-06-02T04:06:31.631Z,50.63
2018-06-02T04:07:31.550Z,50.63
2018-06-02T04:08:31.483Z,56.25
2018-06-02T04:09:31.413Z,56.25
2018-06-02T04:10:31.339Z,56.25
2018-06-02T04:11:31.265Z,56.25
2018-06-02T04:12:31.186Z,61.88
2018-06-02T04:13:31.116Z,61.88
2018-06-02T04:14:31.042Z,61.88
2018-06-02T04:15:30.976Z,61.88
2018-06-02T04:16:30.895Z,61.88
2018-06-02T04:17:30.821Z,61.88
2018-06-02T04:18:30.750Z,61.88
2018-06-02T04:19:30.678Z,61.88
2018-06-02T04:20:30.613Z,61.88
2018-06-02T04:21:30.529Z,67.50
2018-06-02T04:22:30.460Z,67.50
2018-06-02T04:23:30.386Z,61.88
2018-06-02T04:24:30.313Z,61.88
2018-06-02T04:25:30.237Z,61.88
2018-06-02T04:26:30.170Z,67.50
2018-06-02T04:27:30.091Z,67.50
2018-06-02T04:28:30.027Z,73.13
2018-06-02T04:29:29.954Z,78.75
2018-06-02T04:30:29.875Z,73.13
2018-06-02T04:31:29.805Z,67.50
2018-06-02T04:32:29.739Z,73.13
2018-06-02T04:33:29.657Z,84.38
2018-06-02T04:34:29.583Z,78.75
2018-06-02T04:35:29.509Z,67.50
2018-06-02T04:36:29.435Z,67.50
2018-06-02T04:37:29.369Z,67.50
2018-06-02T04:38:29.293Z,67.50
2018-06-02T04:39:29.224Z,67.50
2018-06-02T04:40:29.164Z,73.13
2018-06-02T04:41:29.096Z,73.13
2018-06-02T04:42:29.003Z,73.13
2018-06-02T04:43:28.928Z,73.13
2018-06-02T04:44:28.855Z,73.13
2018-06-02T04:45:28.792Z,78.75
2018-06-02T04:46:28.713Z,78.75
2018-06-02T04:47:28.636Z,78.75
2018-06-02T04:48:28.567Z,90.00
2018-06-02T04:49:28.501Z,101.25
2018-06-02T04:50:28.420Z,101.25
2018-06-02T04:51:28.349Z,78.75
2018-06-02T04:52:28.284Z,101.25
2018-06-02T04:53:28.201Z,106.88
2018-06-02T04:54:28.131Z,84.38
2018-06-02T04:55:28.059Z,78.75
2018-06-02T04:56:27.984Z,90.00
2018-06-02T04:57:27.915Z,90.00
2018-06-02T04:58:27.841Z,84.38
2018-06-02T04:59:27.775Z,78.75
2018-06-02T05:00:27.696Z,78.75
2018-06-02T05:01:27.625Z,78.75
2018-06-02T05:02:27.549Z,78.75
2018-06-02T05:03:27.506Z,84.38
2018-06-02T05:04:27.457Z,73.13
2018-06-02T05:05:27.330Z,73.13
2018-06-02T05:06:27.416Z,73.13
2018-06-02T05:07:27.189Z,73.13
2018-06-02T05:08:27.112Z,73.13
2018-06-02T05:09:27.044Z,73.13
2018-06-02T05:10:26.968Z,73.13
2018-06-02T05:11:26.894Z,73.13
2018-06-02T05:12:26.821Z,73.13
2018-06-02T05:13:26.752Z,73.13
2018-06-02T05:14:26.686Z,73.13
2018-06-02T05:15:26.676Z,73.13
2018-06-02T05:16:26.530Z,73.13
2018-06-02T05:17:26.462Z,73.13
2018-06-02T05:18:26.400Z,73.13
2018-06-02T05:19:26.315Z,73.13
2018-06-02T05:20:26.241Z,73.13
2018-06-02T05:21:26.186Z,73.13
2018-06-02T05:22:26.099Z,73.13
2018-06-02T05:23:26.026Z,73.13
2018-06-02T05:24:25.958Z,78.75
2018-06-02T05:25:25.879Z,78.75
2018-06-02T05:26:25.811Z,78.75
2018-06-02T05:27:25.735Z,78.75
2018-06-02T05:28:25.657Z,78.75
2018-06-02T05:29:25.628Z,78.75
2018-06-02T05:30:25.514Z,84.38
2018-06-02T05:31:25.442Z,84.38
2018-06-02T05:32:25.367Z,84.38
2018-06-02T05:33:25.306Z,84.38
2018-06-02T05:34:25.222Z,90.00
2018-06-02T05:35:25.184Z,90.00
2018-06-02T05:36:25.091Z,90.00
2018-06-02T05:37:25.073Z,90.00
2018-06-02T05:38:25.003Z,95.63
2018-06-02T05:39:24.858Z,95.63
2018-06-02T05:40:24.797Z,101.25
2018-06-02T05:41:24.714Z,101.25
2018-06-02T05:42:24.643Z,101.25
2018-06-02T05:43:24.567Z,101.25
2018-06-02T05:44:24.514Z,106.88
2018-06-02T05:45:24.422Z,106.88
2018-06-02T05:46:24.353Z,112.50
2018-06-02T05:47:25.476Z,112.50
2018-06-02T05:48:24.277Z,118.13
2018-06-02T05:49:24.132Z,123.75
2018-06-02T05:50:24.058Z,123.75
2018-06-02T05:51:23.985Z,123.75
2018-06-02T05:52:23.912Z,123.75
2018-06-02T05:53:23.844Z,129.38
2018-06-02T05:54:23.767Z,129.38
2018-06-02T05:55:23.693Z,129.38
2018-06-02T05:56:23.621Z,135.00
2018-06-02T05:57:23.553Z,135.00
2018-06-02T05:58:23.481Z,140.63
2018-06-02T05:59:23.402Z,140.63
2018-06-02T06:00:23.329Z,146.25
2018-06-02T06:01:23.260Z,151.88
2018-06-02T06:02:23.188Z,151.88
2018-06-02T06:03:23.112Z,151.88
2018-06-02T06:04:23.047Z,157.50
2018-06-02T06:05:22.967Z,157.50
2018-06-02T06:06:22.908Z,157.50
2018-06-02T06:07:22.819Z,163.13
2018-06-02T06:08:22.747Z,168.75
2018-06-02T06:09:22.676Z,168.75
2018-06-02T06:10:22.606Z,174.38
2018-06-02T06:11:22.528Z,180.00
2018-06-02T06:12:22.458Z,180.00
2018-06-02T06:13:22.385Z,185.63
2018-06-02T06:14:22.313Z,191.25
2018-06-02T06:15:22.246Z,196.88
2018-06-02T06:16:22.196Z,208.13
2018-06-02T06:17:22.096Z,208.13
2018-06-02T06:18:22.022Z,208.13
2018-06-02T06:19:21.949Z,208.13
2018-06-02T06:20:21.877Z,213.75
2018-06-02T06:21:21.805Z,208.13
2018-06-02T06:22:21.737Z,219.38
2018-06-02T06:23:21.660Z,225.00
2018-06-02T06:24:21.590Z,225.00
2018-06-02T06:25:21.516Z,225.00
2018-06-02T06:26:21.445Z,225.00
2018-06-02T06:27:21.374Z,230.63
2018-06-02T06:28:21.302Z,236.25
2018-06-02T06:29:21.227Z,236.25
2018-06-02T06:30:21.154Z,236.25
2018-06-02T06:31:21.083Z,241.88
2018-06-02T06:32:21.012Z,241.88
2018-06-02T06:33:20.937Z,247.50
2018-06-02T06:34:20.872Z,247.50
2018-06-02T06:35:20.792Z,253.13
2018-06-02T06:36:20.721Z,258.75
2018-06-02T06:37:20.656Z,258.75
2018-06-02T06:38:20.576Z,264.38
2018-06-02T06:39:20.509Z,270.00
2018-06-02T06:40:20.433Z,253.13
2018-06-02T06:41:20.360Z,258.75
2018-06-02T06:42:20.292Z,275.63
2018-06-02T06:43:20.221Z,258.75
2018-06-02T06:44:20.146Z,247.50
2018-06-02T06:45:20.080Z,247.50
2018-06-02T06:46:20.003Z,196.88
2018-06-02T06:47:19.929Z,174.38
2018-06-02T06:48:19.858Z,168.75
2018-06-02T06:49:19.793Z,174.38
2018-06-02T06:50:19.724Z,185.63
2018-06-02T06:51:19.641Z,191.25
2018-06-02T06:52:19.573Z,191.25
2018-06-02T06:53:19.502Z,191.25
2018-06-02T06:54:19.428Z,196.88
2018-06-02T06:55:19.359Z,202.50
2018-06-02T06:56:19.284Z,202.50
2018-06-02T06:57:19.210Z,202.50
2018-06-02T06:58:19.139Z,202.50
2018-06-02T06:59:19.070Z,202.50
2018-06-02T07:00:18.996Z,196.88
2018-06-02T07:01:18.926Z,185.63
2018-06-02T07:02:18.853Z,191.25
2018-06-02T07:03:18.811Z,208.13
2018-06-02T07:04:18.716Z,213.75
2018-06-02T07:05:18.635Z,225.00
2018-06-02T07:06:18.564Z,247.50
2018-06-02T07:07:18.499Z,236.25
2018-06-02T07:08:18.421Z,225.00
2018-06-02T07:09:18.357Z,219.38
2018-06-02T07:10:18.277Z,202.50
2018-06-02T07:11:18.207Z,202.50
2018-06-02T07:12:18.133Z,202.50
2018-06-02T07:13:18.061Z,191.25
2018-06-02T07:14:17.992Z,180.00
2018-06-02T07:15:17.926Z,163.13
2018-06-02T07:16:17.849Z,157.50
2018-06-02T07:17:17.775Z,163.13
2018-06-02T07:18:17.713Z,180.00
2018-06-02T07:19:17.640Z,180.00
2018-06-02T07:20:17.564Z,168.75
2018-06-02T07:21:17.496Z,157.50
2018-06-02T07:22:17.419Z,135.00
2018-06-02T07:23:17.345Z,112.50
2018-06-02T07:24:17.276Z,123.75
2018-06-02T07:25:17.204Z,129.38
2018-06-02T07:26:17.131Z,112.50
2018-06-02T07:27:17.059Z,106.88
2018-06-02T07:28:16.994Z,106.88
2018-06-02T07:29:16.917Z,106.88
2018-06-02T07:30:16.844Z,118.13
2018-06-02T07:31:16.773Z,129.38
2018-06-02T07:32:16.701Z,123.75
2018-06-02T07:33:16.630Z,112.50
2018-06-02T07:34:16.569Z,101.25
2018-06-02T07:35:16.485Z,101.25
2018-06-02T07:36:16.417Z,106.88
2018-06-02T07:37:16.348Z,106.88
2018-06-02T07:38:16.276Z,112.50
2018-06-02T07:39:16.199Z,118.13
2018-06-02T07:40:16.143Z,123.75
2018-06-02T07:41:16.069Z,118.13
2018-06-02T07:42:15.987Z,112.50
2018-06-02T07:43:15.912Z,112.50
2018-06-02T07:44:15.848Z,123.75
2018-06-02T07:45:15.772Z,135.00
2018-06-02T07:46:15.705Z,140.63
2018-06-02T07:47:15.625Z,151.88
2018-06-02T07:48:15.554Z,163.13
2018-06-02T07:49:15.484Z,168.75
2018-06-02T07:50:15.411Z,185.63
2018-06-02T07:51:15.341Z,202.50
2018-06-02T07:52:15.277Z,225.00
2018-06-02T07:53:15.203Z,241.88
2018-06-02T07:54:15.129Z,241.88
2018-06-02T07:55:15.073Z,241.88
2018-06-02T07:56:14.981Z,258.75
2018-06-02T07:57:14.908Z,264.38
2018-06-02T07:58:14.846Z,275.63
2018-06-02T07:59:14.765Z,281.25
2018-06-02T08:00:14.694Z,298.13
2018-06-02T08:01:14.625Z,331.88
2018-06-02T08:02:14.551Z,309.38
2018-06-02T08:03:14.477Z,320.63
2018-06-02T08:04:14.419Z,320.63
2018-06-02T08:05:14.338Z,309.38
2018-06-02T08:06:14.264Z,326.25
2018-06-02T08:07:14.193Z,309.38
2018-06-02T08:08:14.122Z,315.00
2018-06-02T08:09:14.053Z,315.00
2018-06-02T08:10:13.992Z,320.63
2018-06-02T08:11:13.914Z,326.25
2018-06-02T08:12:13.837Z,315.00
2018-06-02T08:13:13.765Z,292.50
2018-06-02T08:14:13.697Z,315.00
2018-06-02T08:15:13.624Z,315.00
2018-06-02T08:16:13.557Z,320.63
2018-06-02T08:17:13.483Z,320.63
2018-06-02T08:18:13.414Z,348.75
2018-06-02T08:19:13.340Z,360.00
2018-06-02T08:20:13.271Z,365.63
2018-06-02T08:21:13.198Z,348.75
2018-06-02T08:22:13.134Z,337.50
2018-06-02T08:23:13.055Z,337.50
2018-06-02T08:24:12.991Z,343.13
2018-06-02T08:25:12.920Z,348.75
2018-06-02T08:26:12.845Z,354.38
2018-06-02T08:27:12.774Z,331.88
2018-06-02T08:28:12.710Z,365.63
2018-06-02T08:29:12.633Z,365.63
2018-06-02T08:30:12.563Z,360.00
2018-06-02T08:31:12.492Z,376.88
2018-06-02T08:32:12.420Z,388.13
2018-06-02T08:33:12.350Z,376.88
2018-06-02T08:34:12.285Z,343.13
2018-06-02T08:35:12.207Z,343.13
2018-06-02T08:36:12.137Z,326.25
2018-06-02T08:37:12.069Z,303.75
2018-06-02T08:38:11.995Z,281.25
2018-06-02T08:39:11.926Z,281.25
2018-06-02T08:40:11.860Z,264.38
2018-06-02T08:41:11.793Z,264.38
2018-06-02T08:42:11.713Z,258.75
2018-06-02T08:43:11.648Z,275.63
2018-06-02T08:44:11.600Z,286.88
2018-06-02T08:45:11.506Z,270.00
2018-06-02T08:46:11.435Z,298.13
2018-06-02T08:47:11.374Z,309.38
2018-06-02T08:48:11.290Z,303.75
2018-06-02T08:49:11.222Z,309.38
2018-06-02T08:50:11.152Z,337.50
2018-06-02T08:51:11.087Z,348.75
2018-06-02T08:52:11.018Z,371.25
2018-06-02T08:53:10.955Z,371.25
2018-06-02T08:54:10.872Z,376.88
2018-06-02T08:55:10.808Z,382.50
2018-06-02T08:56:10.736Z,376.88
2018-06-02T08:57:10.661Z,376.88
2018-06-02T08:58:10.591Z,365.63
2018-06-02T08:59:10.525Z,376.88
2018-06-02T09:00:10.447Z,433.13
2018-06-02T09:01:10.385Z,410.63
2018-06-02T09:02:10.312Z,410.63
2018-06-02T09:03:10.257Z,444.38
2018-06-02T09:04:10.167Z,450.00
2018-06-02T09:05:10.137Z,433.13
2018-06-02T09:06:10.032Z,433.13
2018-06-02T09:07:09.963Z,388.13
2018-06-02T09:08:09.898Z,382.50
2018-06-02T09:09:09.829Z,388.13
2018-06-02T09:10:09.753Z,376.88
2018-06-02T09:11:09.687Z,320.63
2018-06-02T09:12:09.616Z,320.63
2018-06-02T09:13:09.547Z,337.50
2018-06-02T09:14:09.474Z,348.75
2018-06-02T09:15:09.400Z,337.50
2018-06-02T09:16:09.333Z,320.63
2018-06-02T09:17:09.269Z,298.13
2018-06-02T09:18:09.190Z,281.25
2018-06-02T09:19:09.122Z,275.63
2018-06-02T09:20:09.052Z,281.25
2018-06-02T09:21:08.981Z,286.88
2018-06-02T09:22:08.917Z,292.50
2018-06-02T09:23:08.842Z,309.38
2018-06-02T09:24:08.779Z,343.13
2018-06-02T09:25:08.709Z,365.63
2018-06-02T09:26:08.640Z,331.88
2018-06-02T09:27:08.563Z,309.38
2018-06-02T09:28:08.498Z,309.38
2018-06-02T09:29:08.422Z,303.75
2018-06-02T09:30:08.359Z,348.75
2018-06-02T09:31:08.286Z,337.50
2018-06-02T09:32:08.214Z,360.00
2018-06-02T09:33:08.151Z,382.50
2018-06-02T09:34:08.078Z,382.50
2018-06-02T09:35:08.059Z,388.13
2018-06-02T09:36:07.940Z,405.00
2018-06-02T09:37:07.865Z,433.13
2018-06-02T09:38:07.796Z,438.75
2018-06-02T09:39:07.731Z,416.25
2018-06-02T09:40:07.656Z,399.38
2018-06-02T09:41:07.586Z,382.50
2018-06-02T09:42:07.524Z,360.00
2018-06-02T09:43:07.448Z,337.50
2018-06-02T09:44:07.378Z,326.25
2018-06-02T09:45:07.308Z,303.75
2018-06-02T09:46:07.241Z,264.38
2018-06-02T09:47:07.169Z,253.13
2018-06-02T09:48:07.103Z,253.13
2018-06-02T09:49:07.030Z,241.88
2018-06-02T09:50:06.963Z,230.63
2018-06-02T09:51:06.894Z,202.50
2018-06-02T09:52:06.819Z,163.13
2018-06-02T09:53:06.750Z,168.75
2018-06-02T09:54:06.694Z,140.63
2018-06-02T09:55:06.611Z,140.63
2018-06-02T09:56:06.542Z,157.50
2018-06-02T09:57:06.473Z,174.38
2018-06-02T09:58:06.408Z,191.25
2018-06-02T09:59:06.333Z,219.38
2018-06-02T10:00:06.268Z,253.13
2018-06-02T10:01:06.191Z,298.13
2018-06-02T10:02:06.121Z,326.25
2018-06-02T10:03:06.059Z,337.50
2018-06-02T10:04:05.981Z,360.00
2018-06-02T10:05:05.913Z,376.88
2018-06-02T10:06:05.846Z,376.88
2018-06-02T10:07:05.769Z,348.75
2018-06-02T10:08:05.700Z,360.00
2018-06-02T10:09:05.628Z,343.13
2018-06-02T10:10:05.561Z,360.00
2018-06-02T10:11:05.489Z,382.50
2018-06-02T10:12:05.420Z,376.88
2018-06-02T10:13:05.355Z,365.63
2018-06-02T10:14:05.279Z,337.50
2018-06-02T10:15:05.208Z,354.38
2018-06-02T10:16:05.140Z,376.88
2018-06-02T10:17:05.069Z,433.13
2018-06-02T10:18:04.998Z,438.75
2018-06-02T10:19:04.936Z,461.25
2018-06-02T10:20:04.863Z,478.13
2018-06-02T10:21:04.788Z,506.25
2018-06-02T10:22:04.719Z,534.38
2018-06-02T10:23:04.649Z,545.63
2018-06-02T10:24:04.578Z,540.00
2018-06-02T10:25:04.512Z,556.88
2018-06-02T10:26:04.437Z,596.25
2018-06-02T10:27:04.366Z,641.25
2018-06-02T10:28:04.297Z,669.38
2018-06-02T10:29:04.227Z,697.50
2018-06-02T10:30:04.162Z,708.75
2018-06-02T10:31:04.100Z,703.13
2018-06-02T10:32:04.020Z,697.50
2018-06-02T10:33:03.947Z,691.88
2018-06-02T10:34:03.880Z,697.50
2018-06-02T10:35:03.810Z,691.88
2018-06-02T10:36:03.740Z,669.38
2018-06-02T10:37:03.674Z,630.00
2018-06-02T10:38:03.608Z,630.00
2018-06-02T10:39:03.531Z,607.50
2018-06-02T10:40:03.463Z,579.38
2018-06-02T10:41:03.393Z,601.88
2018-06-02T10:42:03.324Z,590.63
2018-06-02T10:43:03.262Z,590.63
2018-06-02T10:44:03.187Z,590.63
2018-06-02T10:45:03.120Z,590.63
2018-06-02T10:46:03.050Z,585.00
2018-06-02T10:47:02.982Z,579.38
2018-06-02T10:48:02.911Z,585.00
2018-06-02T10:49:02.845Z,579.38
2018-06-02T10:50:02.775Z,585.00
2018-06-02T10:51:02.703Z,573.75
2018-06-02T10:52:02.637Z,540.00
2018-06-02T10:53:02.571Z,551.25
2018-06-02T10:54:02.500Z,545.63
2018-06-02T10:55:02.437Z,568.13
2018-06-02T10:56:02.362Z,568.13
2018-06-02T10:57:02.294Z,585.00
2018-06-02T10:58:02.223Z,590.63
2018-06-02T10:59:02.154Z,601.88
2018-06-02T11:06:09.117Z,618.75
2018-06-02T11:07:08.994Z,613.13
2018-06-02T11:09:12.862Z,601.88
2018-06-02T11:10:12.742Z,596.25
2018-06-02T11:12:16.665Z,585.00
2018-06-02T11:13:16.591Z,585.00
2018-06-02T11:15:20.472Z,585.00
2018-06-02T11:16:20.352Z,568.13
2018-06-02T11:18:24.231Z,556.88
2018-06-02T11:19:24.137Z,556.88
2018-06-02T11:21:28.944Z,528.75
2018-06-02T11:22:28.871Z,489.38
2018-06-02T11:24:32.745Z,534.38
2018-06-02T11:25:32.632Z,545.63
2018-06-02T11:26:32.566Z,551.25
2018-06-02T11:27:32.487Z,556.88
2018-06-02T11:28:32.417Z,573.75
2018-06-02T11:29:32.352Z,585.00
2018-06-02T11:30:32.282Z,590.63
2018-06-02T11:31:32.212Z,596.25
2018-06-02T11:32:32.168Z,607.50
2018-06-02T11:33:32.077Z,613.13
2018-06-02T11:34:32.027Z,618.75
2018-06-02T11:35:31.937Z,618.75
2018-06-02T11:36:31.870Z,618.75
2018-06-02T11:37:31.800Z,618.75
2018-06-02T11:38:31.738Z,618.75
2018-06-02T11:39:31.665Z,618.75
2018-06-02T11:40:31.593Z,618.75
2018-06-02T11:41:31.527Z,630.00
2018-06-02T11:42:31.457Z,618.75
2018-06-02T11:43:31.393Z,630.00
2018-06-02T11:44:31.321Z,663.75
2018-06-02T11:45:31.261Z,697.50
2018-06-02T11:46:31.184Z,720.00
2018-06-02T11:47:31.115Z,742.50
2018-06-02T11:48:31.174Z,759.38
2018-06-02T11:49:30.977Z,742.50
2018-06-02T11:50:30.909Z,765.00
2018-06-02T11:51:30.841Z,770.63
2018-06-02T11:52:30.790Z,759.38
2018-06-02T11:53:30.703Z,736.88
2018-06-02T11:54:30.646Z,725.63
2018-06-02T11:55:30.568Z,675.00
2018-06-02T11:56:30.498Z,703.13
2018-06-02T11:57:30.435Z,703.13
2018-06-02T11:58:30.365Z,708.75
2018-06-02T11:59:30.300Z,770.63
2018-06-02T12:00:30.229Z,787.50
2018-06-02T12:01:30.158Z,765.00
2018-06-02T12:02:30.091Z,725.63
2018-06-02T12:03:30.039Z,618.75
2018-06-02T12:04:29.956Z,601.88
2018-06-02T12:05:29.889Z,585.00
2018-06-02T12:06:29.821Z,579.38
2018-06-02T12:07:29.756Z,596.25
2018-06-02T12:08:29.684Z,646.88
2018-06-02T12:09:29.617Z,697.50
2018-06-02T12:10:29.557Z,753.75
2018-06-02T12:11:29.483Z,776.25
2018-06-02T12:12:29.414Z,759.38
2018-06-02T12:13:29.375Z,725.63
2018-06-02T12:14:29.279Z,742.50
2018-06-02T12:15:29.212Z,776.25
2018-06-02T12:16:29.155Z,815.63
2018-06-02T12:17:29.078Z,759.38
2018-06-02T12:18:29.010Z,753.75
2018-06-02T12:19:28.943Z,753.75
2018-06-02T12:20:28.876Z,669.38
2018-06-02T12:21:28.807Z,635.63
2018-06-02T12:22:28.741Z,551.25
2018-06-02T12:23:28.673Z,483.75
2018-06-02T12:24:28.606Z,382.50
2018-06-02T12:25:28.539Z,348.75
2018-06-02T12:26:28.472Z,365.63
2018-06-02T12:27:28.414Z,371.25
2018-06-02T12:28:28.364Z,382.50
2018-06-02T12:29:28.269Z,405.00
2018-06-02T12:30:28.210Z,416.25
2018-06-02T12:31:28.136Z,444.38
2018-06-02T12:32:28.070Z,444.38
2018-06-02T12:33:28.005Z,517.50
2018-06-02T12:34:27.932Z,450.00
2018-06-02T12:35:27.867Z,365.63
2018-06-02T12:36:27.800Z,326.25
2018-06-02T12:37:27.730Z,371.25
2018-06-02T12:38:27.674Z,348.75
2018-06-02T12:39:27.597Z,427.50
2018-06-02T12:40:27.527Z,495.00
2018-06-02T12:41:27.468Z,652.50
2018-06-02T12:42:27.395Z,646.88
2018-06-02T12:43:27.325Z,562.50
2018-06-02T12:44:27.257Z,540.00
2018-06-02T12:45:27.192Z,556.88
2018-06-02T12:46:27.122Z,748.13
2018-06-02T12:47:27.080Z,680.63
2018-06-02T12:48:26.988Z,810.00
2018-06-02T12:49:27.976Z,815.63
2018-06-02T12:50:26.854Z,691.88
2018-06-02T12:51:26.786Z,708.75
2018-06-02T12:52:26.726Z,703.13
2018-06-02T12:53:26.719Z,703.13
2018-06-02T12:54:26.582Z,691.88
2018-06-02T12:55:26.535Z,736.88
2018-06-02T12:56:26.457Z,753.75
2018-06-02T12:57:26.393Z,765.00